createdAt,value
2022-12-15T00:00:35.395Z,999.58
2022-12-15T00:01:35.395Z,999.58
2022-12-15T00:02:35.533Z,999.58
2022-12-15T00:03:35.923Z,999.57
2022-12-15T00:04:35.285Z,999.57
2022-12-15T00:05:35.261Z,999.57
2022-12-15T00:06:36.832Z,999.58
2022-12-15T00:07:35.271Z,999.58
2022-12-15T00:08:35.218Z,999.59
2022-12-15T00:09:35.314Z,999.60
2022-12-15T00:10:35.208Z,999.61
2022-12-15T00:11:35.236Z,999.61
2022-12-15T00:12:35.222Z,999.63
2022-12-15T00:13:35.403Z,999.66
2022-12-15T00:14:35.166Z,999.67
2022-12-15T00:15:35.224Z,999.68
2022-12-15T00:16:35.224Z,999.68
2022-12-15T00:17:35.135Z,999.68
2022-12-15T00:18:35.127Z,999.68
2022-12-15T00:19:35.136Z,999.68
2022-12-15T00:20:35.107Z,999.70
2022-12-15T00:21:35.151Z,999.72
2022-12-15T00:22:35.116Z,999.75
2022-12-15T00:23:35.085Z,999.77
2022-12-15T00:24:35.073Z,999.79
2022-12-15T00:25:35.078Z,999.82
2022-12-15T00:26:35.083Z,999.83
2022-12-15T00:27:35.034Z,999.84
2022-12-15T00:28:35.042Z,999.85
2022-12-15T00:29:35.026Z,999.85
2022-12-15T00:30:35.016Z,999.87
2022-12-15T00:31:35.061Z,999.87
2022-12-15T00:32:34.991Z,999.88
2022-12-15T00:33:35.130Z,999.88
2022-12-15T00:34:34.971Z,999.88
2022-12-15T00:35:34.979Z,999.90
2022-12-15T00:36:35.000Z,999.90
2022-12-15T00:37:34.953Z,999.90
2022-12-15T00:38:34.942Z,999.89
2022-12-15T00:39:34.993Z,999.86
2022-12-15T00:40:34.918Z,999.85
2022-12-15T00:41:34.915Z,999.85
2022-12-15T00:42:34.891Z,999.84
2022-12-15T00:43:35.471Z,999.84
2022-12-15T00:44:34.884Z,999.84
2022-12-15T00:45:34.870Z,999.84
2022-12-15T00:46:34.957Z,999.83
2022-12-15T00:47:34.877Z,999.83
2022-12-15T00:48:34.829Z,999.84
2022-12-15T00:49:34.859Z,999.84
2022-12-15T00:50:34.812Z,999.84
2022-12-15T00:51:34.821Z,999.84
2022-12-15T00:52:34.812Z,999.85
2022-12-15T00:53:34.816Z,999.84
2022-12-15T00:54:34.800Z,999.84
2022-12-15T00:55:34.766Z,999.83
2022-12-15T00:56:34.819Z,999.83
2022-12-15T00:57:34.774Z,999.83
2022-12-15T00:58:34.730Z,999.84
2022-12-15T00:59:34.756Z,999.87
2022-12-15T01:00:34.717Z,999.90
2022-12-15T01:01:34.807Z,999.93
2022-12-15T01:02:34.929Z,999.95
2022-12-15T01:03:35.450Z,999.97
2022-12-15T01:04:34.671Z,999.97
2022-12-15T01:05:34.679Z,999.99
2022-12-15T01:06:34.684Z,999.98
2022-12-15T01:07:34.675Z,999.99
2022-12-15T01:08:34.638Z,1000.01
2022-12-15T01:09:34.654Z,1000.02
2022-12-15T01:10:34.620Z,1000.05
2022-12-15T01:11:34.655Z,1000.05
2022-12-15T01:12:34.628Z,1000.06
2022-12-15T01:13:34.602Z,1000.05
2022-12-15T01:14:34.594Z,1000.04
2022-12-15T01:15:34.569Z,1000.05
2022-12-15T01:16:34.644Z,1000.05
2022-12-15T01:17:34.555Z,1000.04
2022-12-15T01:18:34.548Z,1000.03
2022-12-15T01:19:34.579Z,1000.02
2022-12-15T01:20:34.657Z,1000.03
2022-12-15T01:21:34.523Z,1000.04
2022-12-15T01:22:34.501Z,1000.05
2022-12-15T01:23:34.802Z,1000.05
2022-12-15T01:24:34.478Z,1000.06
2022-12-15T01:25:34.474Z,1000.06
2022-12-15T01:26:34.518Z,1000.06
2022-12-15T01:27:34.450Z,1000.05
2022-12-15T01:28:34.453Z,1000.04
2022-12-15T01:29:34.519Z,1000.01
2022-12-15T01:30:34.431Z,999.99
2022-12-15T01:31:34.560Z,999.98
2022-12-15T01:32:34.438Z,999.98
2022-12-15T01:33:34.506Z,999.99
2022-12-15T01:34:34.414Z,999.99
2022-12-15T01:35:34.379Z,1000.00
2022-12-15T01:36:34.367Z,1000.01
2022-12-15T01:37:34.390Z,1000.02
2022-12-15T01:38:34.390Z,1000.02
2022-12-15T01:39:34.344Z,1000.00
2022-12-15T01:40:34.338Z,999.99
2022-12-15T01:41:34.336Z,999.97
2022-12-15T01:42:34.324Z,999.96
2022-12-15T01:43:34.848Z,999.95
2022-12-15T01:44:34.278Z,999.95
2022-12-15T01:45:34.278Z,999.97
2022-12-15T01:46:34.376Z,999.99
2022-12-15T01:47:34.267Z,1000.00
2022-12-15T01:48:34.271Z,999.99
2022-12-15T01:49:34.238Z,999.98
2022-12-15T01:50:34.229Z,999.96
2022-12-15T01:51:34.268Z,999.94
2022-12-15T01:52:34.239Z,999.93
2022-12-15T01:53:34.452Z,999.92
2022-12-15T01:54:34.211Z,999.92
2022-12-15T01:55:34.210Z,999.93
2022-12-15T01:56:37.675Z,999.95
2022-12-15T01:57:34.158Z,999.96
2022-12-15T01:58:34.162Z,999.98
2022-12-15T01:59:34.165Z,999.98
2022-12-15T02:00:34.236Z,999.98
2022-12-15T02:01:34.442Z,999.98
2022-12-15T02:02:39.831Z,999.99
2022-12-15T02:03:34.623Z,999.98
2022-12-15T02:04:34.130Z,999.98
2022-12-15T02:05:34.097Z,999.98
2022-12-15T02:06:34.087Z,999.99
2022-12-15T02:07:34.100Z,1000.00
2022-12-15T02:08:34.055Z,1000.00
2022-12-15T02:09:34.072Z,1000.01
2022-12-15T02:10:34.052Z,1000.02
2022-12-15T02:11:34.055Z,1000.02
2022-12-15T02:12:34.046Z,1000.02
2022-12-15T02:13:34.392Z,1000.01
2022-12-15T02:14:33.993Z,1000.00
2022-12-15T02:15:34.010Z,999.99
2022-12-15T02:16:34.040Z,1000.00
2022-12-15T02:17:33.981Z,1000.02
2022-12-15T02:18:33.979Z,1000.03
2022-12-15T02:19:33.955Z,1000.05
2022-12-15T02:20:33.934Z,1000.06
2022-12-15T02:21:33.943Z,1000.08
2022-12-15T02:22:33.914Z,1000.09
2022-12-15T02:23:34.284Z,1000.11
2022-12-15T02:24:33.890Z,1000.13
2022-12-15T02:25:33.904Z,1000.13
2022-12-15T02:26:33.931Z,1000.14
2022-12-15T02:27:33.869Z,1000.16
2022-12-15T02:28:33.870Z,1000.17
2022-12-15T02:29:33.851Z,1000.18
2022-12-15T02:30:33.844Z,1000.21
2022-12-15T02:31:33.907Z,1000.22
2022-12-15T02:32:33.839Z,1000.25
2022-12-15T02:33:34.166Z,1000.27
2022-12-15T02:34:33.816Z,1000.27
2022-12-15T02:35:33.812Z,1000.25
2022-12-15T02:36:33.807Z,1000.23
2022-12-15T02:37:33.780Z,1000.23
2022-12-15T02:38:33.779Z,1000.25
2022-12-15T02:39:33.760Z,1000.27
2022-12-15T02:40:33.741Z,1000.30
2022-12-15T02:41:33.770Z,1000.33
2022-12-15T02:42:33.719Z,1000.37
2022-12-15T02:43:34.350Z,1000.41
2022-12-15T02:44:33.730Z,1000.43
2022-12-15T02:45:33.753Z,1000.44
2022-12-15T02:46:33.707Z,1000.43
2022-12-15T02:47:33.727Z,1000.44
2022-12-15T02:48:33.700Z,1000.46
2022-12-15T02:49:33.694Z,1000.48
2022-12-15T02:50:33.670Z,1000.52
2022-12-15T02:51:33.652Z,1000.56
2022-12-15T02:52:33.650Z,1000.60
2022-12-15T02:53:34.103Z,1000.63
2022-12-15T02:54:33.603Z,1000.65
2022-12-15T02:55:33.606Z,1000.66
2022-12-15T02:56:33.592Z,1000.67
2022-12-15T02:57:33.648Z,1000.68
2022-12-15T02:58:33.568Z,1000.69
2022-12-15T02:59:33.586Z,1000.70
2022-12-15T03:00:33.560Z,1000.71
2022-12-15T03:01:33.680Z,1000.72
2022-12-15T03:02:33.701Z,1000.71
2022-12-15T03:03:33.965Z,1000.71
2022-12-15T03:04:33.545Z,1000.71
2022-12-15T03:05:33.507Z,1000.71
2022-12-15T03:06:33.496Z,1000.72
2022-12-15T03:07:33.572Z,1000.73
2022-12-15T03:08:33.474Z,1000.74
2022-12-15T03:09:33.454Z,1000.77
2022-12-15T03:10:33.463Z,1000.79
2022-12-15T03:11:33.468Z,1000.80
2022-12-15T03:12:33.443Z,1000.82
2022-12-15T03:13:33.929Z,1000.85
2022-12-15T03:14:33.417Z,1000.88
2022-12-15T03:15:35.484Z,1000.90
2022-12-15T03:16:33.705Z,1000.91
2022-12-15T03:17:33.381Z,1000.90
2022-12-15T03:18:33.389Z,1000.89
2022-12-15T03:19:33.354Z,1000.86
2022-12-15T03:20:33.365Z,1000.86
2022-12-15T03:21:33.378Z,1000.86
2022-12-15T03:22:33.347Z,1000.86
2022-12-15T03:23:33.829Z,1000.87
2022-12-15T03:24:33.314Z,1000.87
2022-12-15T03:25:33.312Z,1000.88
2022-12-15T03:26:33.316Z,1000.88
2022-12-15T03:27:33.297Z,1000.88
2022-12-15T03:28:33.278Z,1000.88
2022-12-15T03:29:33.265Z,1000.90
2022-12-15T03:30:33.266Z,1000.90
2022-12-15T03:31:33.376Z,1000.89
2022-12-15T03:32:33.290Z,1000.87
2022-12-15T03:33:33.989Z,1000.86
2022-12-15T03:34:33.220Z,1000.84
2022-12-15T03:35:33.212Z,1000.83
2022-12-15T03:36:33.214Z,1000.81
2022-12-15T03:37:33.245Z,1000.79
2022-12-15T03:38:33.181Z,1000.77
2022-12-15T03:39:33.182Z,1000.76
2022-12-15T03:40:33.166Z,1000.76
2022-12-15T03:41:33.165Z,1000.76
2022-12-15T03:42:33.148Z,1000.77
2022-12-15T03:43:33.744Z,1000.77
2022-12-15T03:44:33.120Z,1000.76
2022-12-15T03:45:33.164Z,1000.75
2022-12-15T03:46:33.167Z,1000.76
2022-12-15T03:47:33.097Z,1000.76
2022-12-15T03:48:33.084Z,1000.76
2022-12-15T03:49:33.073Z,1000.76
2022-12-15T03:50:33.083Z,1000.75
2022-12-15T03:51:33.083Z,1000.77
2022-12-15T03:52:33.048Z,1000.81
2022-12-15T03:53:33.304Z,1000.84
2022-12-15T03:54:33.020Z,1000.85
2022-12-15T03:55:33.010Z,1000.85
2022-12-15T03:56:33.025Z,1000.86
2022-12-15T03:57:33.005Z,1000.86
2022-12-15T03:58:33.020Z,1000.88
2022-12-15T03:59:32.981Z,1000.90
2022-12-15T04:00:32.978Z,1000.94
2022-12-15T04:01:33.161Z,1000.98
2022-12-15T04:02:33.187Z,1001.01
2022-12-15T04:03:33.381Z,1001.05
2022-12-15T04:04:32.921Z,1001.05
2022-12-15T04:05:32.923Z,1001.05
2022-12-15T04:06:32.930Z,1001.07
2022-12-15T04:07:32.936Z,1001.08
2022-12-15T04:08:32.895Z,1001.06
2022-12-15T04:09:32.892Z,1001.07
2022-12-15T04:10:34.801Z,1001.09
2022-12-15T04:11:32.877Z,1001.10
2022-12-15T04:12:32.842Z,1001.08
2022-12-15T04:13:33.314Z,1001.08
2022-12-15T04:14:32.828Z,1001.09
2022-12-15T04:15:32.827Z,1001.08
2022-12-15T04:16:32.882Z,1001.07
2022-12-15T04:17:32.795Z,1001.08
2022-12-15T04:18:32.788Z,1001.07
2022-12-15T04:19:32.800Z,1001.09
2022-12-15T04:20:32.795Z,1001.10
2022-12-15T04:21:32.786Z,1001.11
2022-12-15T04:22:32.773Z,1001.12
2022-12-15T04:23:33.168Z,1001.12
2022-12-15T04:24:32.780Z,1001.15
2022-12-15T04:25:32.713Z,1001.18
2022-12-15T04:26:32.713Z,1001.19
2022-12-15T04:27:32.738Z,1001.19
2022-12-15T04:28:32.693Z,1001.17
2022-12-15T04:29:32.697Z,1001.17
2022-12-15T04:30:32.744Z,1001.20
2022-12-15T04:31:32.778Z,1001.23
2022-12-15T04:32:32.687Z,1001.24
2022-12-15T04:33:33.174Z,1001.26
2022-12-15T04:34:32.652Z,1001.27
2022-12-15T04:35:32.630Z,1001.28
2022-12-15T04:36:32.641Z,1001.29
2022-12-15T04:37:32.689Z,1001.30
2022-12-15T04:38:32.607Z,1001.30
2022-12-15T04:39:32.591Z,1001.31
2022-12-15T04:40:32.596Z,1001.32
2022-12-15T04:41:32.560Z,1001.34
2022-12-15T04:42:32.575Z,1001.37
2022-12-15T04:43:33.051Z,1001.39
2022-12-15T04:44:32.534Z,1001.40
2022-12-15T04:45:32.550Z,1001.40
2022-12-15T04:46:32.621Z,1001.41
2022-12-15T04:47:32.539Z,1001.42
2022-12-15T04:48:32.501Z,1001.45
2022-12-15T04:49:32.523Z,1001.46
2022-12-15T04:50:32.490Z,1001.47
2022-12-15T04:51:32.464Z,1001.48
2022-12-15T04:52:32.481Z,1001.48
2022-12-15T04:53:32.959Z,1001.49
2022-12-15T04:54:32.450Z,1001.50
2022-12-15T04:55:32.434Z,1001.51
2022-12-15T04:56:32.415Z,1001.50
2022-12-15T04:57:32.429Z,1001.50
2022-12-15T04:58:32.403Z,1001.48
2022-12-15T04:59:32.392Z,1001.47
2022-12-15T05:00:32.424Z,1001.50
2022-12-15T05:01:32.462Z,1001.54
2022-12-15T05:02:32.543Z,1001.59
2022-12-15T05:03:32.720Z,1001.62
2022-12-15T05:04:32.442Z,1001.64
2022-12-15T05:05:32.333Z,1001.67
2022-12-15T05:06:32.328Z,1001.72
2022-12-15T05:07:32.341Z,1001.71
2022-12-15T05:08:32.297Z,1001.72
2022-12-15T05:09:32.343Z,1001.74
2022-12-15T05:10:32.313Z,1001.77
2022-12-15T05:11:32.277Z,1001.79
2022-12-15T05:12:32.302Z,1001.82
2022-12-15T05:13:32.672Z,1001.84
2022-12-15T05:14:32.284Z,1001.85
2022-12-15T05:15:32.278Z,1001.86
2022-12-15T05:16:32.237Z,1001.86
2022-12-15T05:17:34.560Z,1001.87
2022-12-15T05:18:32.221Z,1001.90
2022-12-15T05:19:32.204Z,1001.94
2022-12-15T05:20:32.195Z,1001.93
2022-12-15T05:21:32.181Z,1001.92
2022-12-15T05:22:32.227Z,1001.91
2022-12-15T05:23:32.542Z,1001.89
2022-12-15T05:24:32.180Z,1001.87
2022-12-15T05:25:32.174Z,1001.85
2022-12-15T05:26:32.160Z,1001.84
2022-12-15T05:27:32.148Z,1001.83
2022-12-15T05:28:32.125Z,1001.84
2022-12-15T05:29:32.113Z,1001.86
2022-12-15T05:30:32.097Z,1001.88
2022-12-15T05:31:32.190Z,1001.89
2022-12-15T05:32:32.121Z,1001.89
2022-12-15T05:33:32.381Z,1001.90
2022-12-15T05:34:32.056Z,1001.92
2022-12-15T05:35:32.100Z,1001.92
2022-12-15T05:36:32.048Z,1001.95
2022-12-15T05:37:32.047Z,1001.95
2022-12-15T05:38:32.017Z,1001.97
2022-12-15T05:39:32.018Z,1001.99
2022-12-15T05:40:32.076Z,1002.02
2022-12-15T05:41:32.019Z,1002.04
2022-12-15T05:42:32.000Z,1002.05
2022-12-15T05:43:32.331Z,1002.05
2022-12-15T05:44:31.985Z,1002.09
2022-12-15T05:45:32.036Z,1002.09
2022-12-15T05:46:32.045Z,1002.07
2022-12-15T05:47:31.940Z,1002.05
2022-12-15T05:48:31.930Z,1002.07
2022-12-15T05:49:31.946Z,1002.08
2022-12-15T05:50:31.904Z,1002.10
2022-12-15T05:51:31.885Z,1002.12
2022-12-15T05:52:31.905Z,1002.10
2022-12-15T05:53:32.453Z,1002.08
2022-12-15T05:54:31.879Z,1002.06
2022-12-15T05:55:31.852Z,1002.08
2022-12-15T05:56:31.844Z,1002.11
2022-12-15T05:57:31.840Z,1002.16
2022-12-15T05:58:31.887Z,1002.23
2022-12-15T05:59:32.642Z,1002.30
2022-12-15T06:00:31.829Z,1002.33
2022-12-15T06:01:31.869Z,1002.32
2022-12-15T06:02:31.927Z,1002.31
2022-12-15T06:03:32.043Z,1002.35
2022-12-15T06:04:31.800Z,1002.36
2022-12-15T06:05:31.756Z,1002.35
2022-12-15T06:06:31.749Z,1002.36
2022-12-15T06:07:31.744Z,1002.36
2022-12-15T06:08:31.777Z,1002.38
2022-12-15T06:09:31.732Z,1002.42
2022-12-15T06:10:31.714Z,1002.47
2022-12-15T06:11:31.735Z,1002.51
2022-12-15T06:12:31.724Z,1002.54
2022-12-15T06:13:32.015Z,1002.60
2022-12-15T06:14:31.686Z,1002.65
2022-12-15T06:15:31.667Z,1002.65
2022-12-15T06:16:31.773Z,1002.65
2022-12-15T06:17:31.707Z,1002.63
2022-12-15T06:18:31.647Z,1002.59
2022-12-15T06:19:31.618Z,1002.56
2022-12-15T06:20:31.624Z,1002.56
2022-12-15T06:21:31.632Z,1002.54
2022-12-15T06:22:31.673Z,1002.49
2022-12-15T06:23:32.007Z,1002.42
2022-12-15T06:24:31.586Z,1002.45
2022-12-15T06:25:31.574Z,1002.60
2022-12-15T06:26:31.571Z,1002.67
2022-12-15T06:27:31.616Z,1002.63
2022-12-15T06:28:31.535Z,1002.59
2022-12-15T06:29:31.527Z,1002.60
2022-12-15T06:30:31.619Z,1002.66
2022-12-15T06:31:31.628Z,1002.59
2022-12-15T06:32:31.545Z,1002.58
2022-12-15T06:33:31.963Z,1002.62
2022-12-15T06:34:31.498Z,1002.61
2022-12-15T06:35:31.638Z,1002.57
2022-12-15T06:36:31.422Z,1002.57
2022-12-15T06:37:31.412Z,1002.56
2022-12-15T06:38:31.404Z,1002.63
2022-12-15T06:39:31.392Z,1002.65
2022-12-15T06:40:37.690Z,1002.65
2022-12-15T06:41:31.373Z,1002.62
2022-12-15T06:42:31.380Z,1002.61
2022-12-15T06:43:31.742Z,1002.62
2022-12-15T06:44:31.357Z,1002.66
2022-12-15T06:45:31.330Z,1002.71
2022-12-15T06:46:31.409Z,1002.73
2022-12-15T06:47:31.336Z,1002.71
2022-12-15T06:48:31.324Z,1002.70
2022-12-15T06:49:31.480Z,1002.68
2022-12-15T06:50:31.270Z,1002.68
2022-12-15T06:51:31.289Z,1002.65
2022-12-15T06:52:31.285Z,1002.65
2022-12-15T06:53:32.660Z,1002.67
2022-12-15T06:54:31.241Z,1002.71
2022-12-15T06:55:31.217Z,1002.74
2022-12-15T06:56:33.960Z,1002.76
2022-12-15T06:57:31.216Z,1002.77
2022-12-15T06:58:31.212Z,1002.76
2022-12-15T06:59:31.198Z,1002.81
2022-12-15T07:00:31.236Z,1002.84
2022-12-15T07:01:31.413Z,1002.89
2022-12-15T07:02:31.359Z,1002.91
2022-12-15T07:03:32.000Z,1002.93
2022-12-15T07:04:31.241Z,1002.96
2022-12-15T07:05:31.203Z,1003.00
2022-12-15T07:06:31.138Z,1003.01
2022-12-15T07:07:31.140Z,1003.03
2022-12-15T07:08:35.357Z,1003.06
2022-12-15T07:09:31.085Z,1003.08
2022-12-15T07:10:31.157Z,1003.09
2022-12-15T07:11:31.065Z,1003.08
2022-12-15T07:12:31.078Z,1003.07
2022-12-15T07:13:31.364Z,1003.10
2022-12-15T07:14:31.070Z,1003.15
2022-12-15T07:15:31.028Z,1003.16
2022-12-15T07:16:33.322Z,1003.18
2022-12-15T07:17:31.684Z,1003.20
2022-12-15T07:18:31.017Z,1003.22
2022-12-15T07:19:30.995Z,1003.26
2022-12-15T07:20:31.074Z,1003.30
2022-12-15T07:21:31.052Z,1003.33
2022-12-15T07:22:30.989Z,1003.33
2022-12-15T07:23:53.623Z,1003.33
2022-12-15T07:24:30.953Z,1003.34
2022-12-15T07:25:30.959Z,1003.32
2022-12-15T07:26:30.936Z,1003.32
2022-12-15T07:27:31.564Z,1003.33
2022-12-15T07:28:31.325Z,1003.36
2022-12-15T07:29:30.898Z,1003.37
2022-12-15T07:30:36.764Z,1003.39
2022-12-15T07:31:31.073Z,1003.42
2022-12-15T07:32:30.866Z,1003.45
2022-12-15T07:33:31.458Z,1003.46
2022-12-15T07:34:30.876Z,1003.50
2022-12-15T07:35:30.857Z,1003.54
2022-12-15T07:36:30.921Z,1003.57
2022-12-15T07:37:30.864Z,1003.59
2022-12-15T07:38:30.829Z,1003.59
2022-12-15T07:39:30.805Z,1003.58
2022-12-15T07:40:30.834Z,1003.60
2022-12-15T07:41:30.862Z,1003.64
2022-12-15T07:42:30.774Z,1003.66
2022-12-15T07:43:31.407Z,1003.64
2022-12-15T07:44:30.758Z,1003.63
2022-12-15T07:45:30.893Z,1003.66
2022-12-15T07:46:30.886Z,1003.65
2022-12-15T07:47:30.789Z,1003.65
2022-12-15T07:48:30.812Z,1003.63
2022-12-15T07:49:31.199Z,1003.62
2022-12-15T07:50:30.687Z,1003.60
2022-12-15T07:51:30.682Z,1003.63
2022-12-15T07:52:30.714Z,1003.65
2022-12-15T07:53:31.317Z,1003.67
2022-12-15T07:54:30.737Z,1003.66
2022-12-15T07:55:57.189Z,1003.68
2022-12-15T07:56:34.512Z,1003.71
2022-12-15T07:57:30.650Z,1003.75
2022-12-15T07:58:30.644Z,1003.76
2022-12-15T07:59:30.618Z,1003.77
2022-12-15T08:00:30.604Z,1003.77
2022-12-15T08:01:30.661Z,1003.76
2022-12-15T08:02:30.886Z,1003.76
2022-12-15T08:03:31.132Z,1003.74
2022-12-15T08:04:30.602Z,1003.74
2022-12-15T08:05:30.586Z,1003.72
2022-12-15T08:06:30.548Z,1003.74
2022-12-15T08:07:30.589Z,1003.77
2022-12-15T08:08:30.979Z,1003.82
2022-12-15T08:09:30.525Z,1003.86
2022-12-15T08:10:30.507Z,1003.87
2022-12-15T08:11:30.498Z,1003.90
2022-12-15T08:12:30.506Z,1003.92
2022-12-15T08:14:01.404Z,1003.96
2022-12-15T08:14:30.488Z,1004.00
2022-12-15T08:15:30.463Z,1003.99
2022-12-15T08:16:30.521Z,1003.99
2022-12-15T08:17:30.445Z,1004.00
2022-12-15T08:18:30.466Z,1004.01
2022-12-15T08:19:30.414Z,1004.05
2022-12-15T08:20:30.410Z,1004.06
2022-12-15T08:21:30.411Z,1004.06
2022-12-15T08:22:30.455Z,1004.09
2022-12-15T08:23:31.713Z,1004.08
2022-12-15T08:24:30.470Z,1004.07
2022-12-15T08:25:30.498Z,1004.05
2022-12-15T08:26:31.416Z,1004.05
2022-12-15T08:27:30.345Z,1004.04
2022-12-15T08:28:30.352Z,1004.03
2022-12-15T08:29:50.635Z,1004.04
2022-12-15T08:30:30.331Z,1004.03
2022-12-15T08:31:30.377Z,1004.06
2022-12-15T08:32:30.329Z,1004.09
2022-12-15T08:33:30.767Z,1004.11
2022-12-15T08:34:30.281Z,1004.14
2022-12-15T08:35:55.221Z,1004.18
2022-12-15T08:36:30.273Z,1004.20
2022-12-15T08:37:30.268Z,1004.21
2022-12-15T08:38:30.261Z,1004.21
2022-12-15T08:39:30.276Z,1004.21
2022-12-15T08:40:30.268Z,1004.20
2022-12-15T08:41:30.210Z,1004.19
2022-12-15T08:42:30.281Z,1004.20
2022-12-15T08:43:30.694Z,1004.20
2022-12-15T08:44:30.185Z,1004.22
2022-12-15T08:45:30.273Z,1004.24
2022-12-15T08:46:30.304Z,1004.24
2022-12-15T08:47:30.155Z,1004.21
2022-12-15T08:48:30.163Z,1004.22
2022-12-15T08:49:30.133Z,1004.25
2022-12-15T08:50:30.118Z,1004.24
2022-12-15T08:51:30.118Z,1004.25
2022-12-15T08:52:30.117Z,1004.26
2022-12-15T08:53:41.243Z,1004.29
2022-12-15T08:54:30.125Z,1004.31
2022-12-15T08:55:30.073Z,1004.33
2022-12-15T08:56:30.095Z,1004.35
2022-12-15T08:57:30.069Z,1004.33
2022-12-15T08:58:30.100Z,1004.33
2022-12-15T08:59:30.033Z,1004.32
2022-12-15T09:00:30.055Z,1004.32
2022-12-15T09:01:30.280Z,1004.31
2022-12-15T09:02:30.097Z,1004.30
2022-12-15T09:03:30.544Z,1004.30
2022-12-15T09:04:30.057Z,1004.30
2022-12-15T09:05:29.979Z,1004.32
2022-12-15T09:06:29.969Z,1004.32
2022-12-15T09:07:29.977Z,1004.33
2022-12-15T09:08:29.958Z,1004.34
2022-12-15T09:09:29.945Z,1004.35
2022-12-15T09:10:29.925Z,1004.34
2022-12-15T09:11:29.929Z,1004.35
2022-12-15T09:12:29.901Z,1004.36
2022-12-15T09:13:30.406Z,1004.38
2022-12-15T09:14:29.906Z,1004.38
2022-12-15T09:16:00.264Z,1004.39
2022-12-15T09:16:29.972Z,1004.38
2022-12-15T09:17:29.931Z,1004.37
2022-12-15T09:18:29.860Z,1004.40
2022-12-15T09:19:29.880Z,1004.42
2022-12-15T09:20:29.861Z,1004.42
2022-12-15T09:21:29.826Z,1004.42
2022-12-15T09:22:29.812Z,1004.42
2022-12-15T09:23:30.273Z,1004.40
2022-12-15T09:24:35.155Z,1004.42
2022-12-15T09:25:29.788Z,1004.44
2022-12-15T09:26:29.826Z,1004.46
2022-12-15T09:27:29.794Z,1004.48
2022-12-15T09:28:30.063Z,1004.49
2022-12-15T09:29:29.771Z,1004.51
2022-12-15T09:30:29.921Z,1004.51
2022-12-15T09:31:29.860Z,1004.53
2022-12-15T09:32:29.713Z,1004.51
2022-12-15T09:33:30.271Z,1004.50
2022-12-15T09:34:29.721Z,1004.50
2022-12-15T09:35:29.686Z,1004.51
2022-12-15T09:36:29.673Z,1004.50
2022-12-15T09:37:29.692Z,1004.47
2022-12-15T09:38:29.688Z,1004.45
2022-12-15T09:39:29.657Z,1004.43
2022-12-15T09:40:29.670Z,1004.42
2022-12-15T09:41:29.691Z,1004.41
2022-12-15T09:42:29.662Z,1004.39
2022-12-15T09:43:41.452Z,1004.39
2022-12-15T09:44:29.618Z,1004.39
2022-12-15T09:45:29.587Z,1004.39
2022-12-15T09:46:29.675Z,1004.40
2022-12-15T09:47:29.580Z,1004.39
2022-12-15T09:48:29.585Z,1004.40
2022-12-15T09:49:29.580Z,1004.40
2022-12-15T09:50:29.539Z,1004.41
2022-12-15T09:51:29.539Z,1004.42
2022-12-15T09:52:29.523Z,1004.44
2022-12-15T09:53:54.143Z,1004.45
2022-12-15T09:54:29.571Z,1004.48
2022-12-15T09:55:29.496Z,1004.51
2022-12-15T09:56:29.530Z,1004.53
2022-12-15T09:57:29.483Z,1004.57
2022-12-15T09:58:29.478Z,1004.57
2022-12-15T09:59:29.470Z,1004.59
2022-12-15T10:00:29.456Z,1004.59
2022-12-15T10:01:29.654Z,1004.59
2022-12-15T10:02:29.557Z,1004.59
2022-12-15T10:03:30.443Z,1004.60
2022-12-15T10:04:29.511Z,1004.60
2022-12-15T10:05:50.092Z,1004.60
2022-12-15T10:06:33.105Z,1004.59
2022-12-15T10:07:29.473Z,1004.58
2022-12-15T10:08:29.428Z,1004.54
2022-12-15T10:09:29.432Z,1004.51
2022-12-15T10:10:29.369Z,1004.50
2022-12-15T10:11:29.445Z,1004.49
2022-12-15T10:12:29.378Z,1004.49
2022-12-15T10:13:29.771Z,1004.48
2022-12-15T10:14:29.356Z,1004.49
2022-12-15T10:15:29.413Z,1004.54
2022-12-15T10:16:29.296Z,1004.54
2022-12-15T10:17:29.345Z,1004.54
2022-12-15T10:18:29.289Z,1004.55
2022-12-15T10:19:29.332Z,1004.54
2022-12-15T10:20:29.332Z,1004.57
2022-12-15T10:21:29.273Z,1004.59
2022-12-15T10:22:29.233Z,1004.61
2022-12-15T10:23:29.851Z,1004.62
2022-12-15T10:25:08.070Z,1004.63
2022-12-15T10:25:30.765Z,1004.61
2022-12-15T10:26:29.208Z,1004.59
2022-12-15T10:27:29.281Z,1004.56
2022-12-15T10:28:29.212Z,1004.55
2022-12-15T10:29:29.282Z,1004.53
2022-12-15T10:30:29.459Z,1004.55
2022-12-15T10:31:29.331Z,1004.56
2022-12-15T10:32:29.206Z,1004.56
2022-12-15T10:33:29.509Z,1004.56
2022-12-15T10:34:29.169Z,1004.58
2022-12-15T10:35:29.175Z,1004.59
2022-12-15T10:36:29.132Z,1004.59
2022-12-15T10:37:29.168Z,1004.58
2022-12-15T10:38:29.094Z,1004.57
2022-12-15T10:39:29.069Z,1004.58
2022-12-15T10:40:29.064Z,1004.57
2022-12-15T10:41:29.071Z,1004.57
2022-12-15T10:42:29.152Z,1004.55
2022-12-15T10:43:29.649Z,1004.53
2022-12-15T10:44:32.361Z,1004.53
2022-12-15T10:45:29.013Z,1004.53
2022-12-15T10:46:29.158Z,1004.54
2022-12-15T10:47:29.003Z,1004.54
2022-12-15T10:48:28.983Z,1004.55
2022-12-15T10:49:28.999Z,1004.57
2022-12-15T10:50:28.968Z,1004.55
2022-12-15T10:51:28.965Z,1004.57
2022-12-15T10:52:29.015Z,1004.54
2022-12-15T10:53:29.313Z,1004.54
2022-12-15T10:54:28.916Z,1004.57
2022-12-15T10:55:28.992Z,1004.57
2022-12-15T10:56:33.269Z,1004.59
2022-12-15T10:57:28.920Z,1004.61
2022-12-15T10:58:28.897Z,1004.62
2022-12-15T10:59:28.868Z,1004.63
2022-12-15T11:00:28.897Z,1004.62
2022-12-15T11:01:28.979Z,1004.60
2022-12-15T11:02:29.173Z,1004.59
2022-12-15T11:03:29.555Z,1004.60
2022-12-15T11:04:29.054Z,1004.61
2022-12-15T11:05:28.809Z,1004.63
2022-12-15T11:06:28.793Z,1004.64
2022-12-15T11:07:28.786Z,1004.65
2022-12-15T11:08:28.826Z,1004.68
2022-12-15T11:09:28.836Z,1004.71
2022-12-15T11:10:28.854Z,1004.75
2022-12-15T11:11:28.787Z,1004.76
2022-12-15T11:12:28.743Z,1004.78
2022-12-15T11:13:33.196Z,1004.81
2022-12-15T11:14:28.731Z,1004.84
2022-12-15T11:15:28.818Z,1004.86
2022-12-15T11:16:28.721Z,1004.88
2022-12-15T11:17:28.748Z,1004.88
2022-12-15T11:18:28.711Z,1004.90
2022-12-15T11:19:28.683Z,1004.90
2022-12-15T11:20:28.659Z,1004.90
2022-12-15T11:21:28.700Z,1004.89
2022-12-15T11:22:28.642Z,1004.88
2022-12-15T11:23:29.032Z,1004.87
2022-12-15T11:24:28.736Z,1004.87
2022-12-15T11:25:28.638Z,1004.88
2022-12-15T11:26:28.625Z,1004.88
2022-12-15T11:27:28.663Z,1004.90
2022-12-15T11:28:28.840Z,1004.92
2022-12-15T11:29:28.613Z,1004.92
2022-12-15T11:30:28.753Z,1004.91
2022-12-15T11:31:28.607Z,1004.92
2022-12-15T11:32:28.554Z,1004.89
2022-12-15T11:33:29.178Z,1004.86
2022-12-15T11:34:28.560Z,1004.83
2022-12-15T11:35:28.526Z,1004.81
2022-12-15T11:36:28.595Z,1004.82
2022-12-15T11:37:34.314Z,1004.82
2022-12-15T11:38:28.533Z,1004.83
2022-12-15T11:39:28.562Z,1004.83
2022-12-15T11:40:28.469Z,1004.84
2022-12-15T11:41:28.457Z,1004.86
2022-12-15T11:42:28.479Z,1004.86
2022-12-15T11:43:28.784Z,1004.87
2022-12-15T11:44:28.469Z,1004.87
2022-12-15T11:45:28.491Z,1004.88
2022-12-15T11:46:28.515Z,1004.89
2022-12-15T11:47:28.428Z,1004.90
2022-12-15T11:48:28.396Z,1004.91
2022-12-15T11:49:28.583Z,1004.91
2022-12-15T11:50:28.374Z,1004.92
2022-12-15T11:51:28.354Z,1004.92
2022-12-15T11:52:28.460Z,1004.93
2022-12-15T11:53:28.755Z,1004.92
2022-12-15T11:54:28.331Z,1004.89
2022-12-15T15:03:14.741Z,1004.87
2022-12-15T15:03:27.274Z,1005.09
2022-12-15T15:04:27.296Z,1005.09
2022-12-15T15:05:27.285Z,1005.10
2022-12-15T15:06:27.321Z,1005.11
2022-12-15T15:07:27.203Z,1005.12
2022-12-15T15:08:27.315Z,1005.14
2022-12-15T15:09:27.261Z,1005.16
2022-12-15T15:10:27.235Z,1005.17
2022-12-15T15:11:27.184Z,1005.16
2022-12-15T15:12:27.216Z,1005.15
2022-12-15T15:13:27.149Z,1005.14
2022-12-15T15:14:27.188Z,1005.12
2022-12-15T15:15:27.146Z,1005.12